createdAt,value
2022-10-16T00:01:22.820Z,3.13
2022-10-16T00:06:18.585Z,3.70
2022-10-16T00:11:14.995Z,5.22
2022-10-16T00:16:11.095Z,3.30
2022-10-16T00:21:11.353Z,4.90
2022-10-16T00:26:07.837Z,3.92
2022-10-16T00:31:01.412Z,2.90
2022-10-16T00:35:56.141Z,2.50
2022-10-16T00:40:49.420Z,4.80
2022-10-16T00:45:43.310Z,5.43
2022-10-16T00:50:37.200Z,2.92
2022-10-16T00:55:32.556Z,3.80
2022-10-16T01:00:28.793Z,7.60
2022-10-16T01:05:24.730Z,3.95
2022-10-16T01:10:33.593Z,2.50
2022-10-16T01:15:35.348Z,2.47
2022-10-16T01:20:35.179Z,3.72
2022-10-16T01:25:49.101Z,6.28
2022-10-16T01:30:47.073Z,1.92
2022-10-16T01:35:45.284Z,4.68
2022-10-16T01:40:46.533Z,3.92
2022-10-16T01:45:40.353Z,3.20
2022-10-16T01:50:39.858Z,2.50
2022-10-16T01:55:40.397Z,3.90
2022-10-16T02:00:34.048Z,5.22
2022-10-16T02:05:33.111Z,3.58
2022-10-16T02:10:31.993Z,6.03
2022-10-16T02:15:25.879Z,5.97
2022-10-16T02:20:22.244Z,3.72
2022-10-16T02:25:26.064Z,7.45
2022-10-16T02:30:27.181Z,4.05
2022-10-16T02:35:24.001Z,3.90
2022-10-16T02:40:21.496Z,2.97
2022-10-16T02:45:17.718Z,3.38
2022-10-16T02:50:12.600Z,6.85
2022-10-16T02:55:07.411Z,3.22
2022-10-16T03:00:00.686Z,3.92
2022-10-16T03:04:53.872Z,4.10
2022-10-16T03:09:48.567Z,6.72
2022-10-16T03:14:41.898Z,5.93
2022-10-16T03:19:35.841Z,8.63
2022-10-16T03:24:29.068Z,8.80
2022-10-16T03:29:23.678Z,7.18
2022-10-16T03:34:16.894Z,10.43
2022-10-16T03:39:10.174Z,12.18
2022-10-16T03:44:03.462Z,5.72
2022-10-16T03:48:58.246Z,9.35
2022-10-16T03:53:51.649Z,4.55
2022-10-16T03:58:44.984Z,4.55
2022-10-16T04:03:38.245Z,3.75
2022-10-16T04:08:35.218Z,5.43
2022-10-16T04:13:28.533Z,4.72
2022-10-16T04:18:21.814Z,5.60
2022-10-16T04:23:15.146Z,7.07
2022-10-16T04:28:09.763Z,8.60
2022-10-16T04:33:03.040Z,8.23
2022-10-16T04:37:56.271Z,7.05
2022-10-16T04:42:49.498Z,7.18
2022-10-16T04:47:44.150Z,8.13
2022-10-16T04:52:37.536Z,6.93
2022-10-16T04:57:31.189Z,6.65
2022-10-16T05:02:24.598Z,8.10
2022-10-16T05:07:19.453Z,8.82
2022-10-16T05:12:12.807Z,6.55
2022-10-16T05:17:06.103Z,7.25
2022-10-16T05:21:59.386Z,7.25
2022-10-16T05:26:54.076Z,5.75
2022-10-16T05:31:47.397Z,8.50
2022-10-16T05:36:41.015Z,7.38
2022-10-16T05:41:34.390Z,13.90
2022-10-16T05:46:28.996Z,13.50
2022-10-16T05:51:22.432Z,22.27
2022-10-16T05:56:15.928Z,8.00
2022-10-16T06:01:13.253Z,10.60
2022-10-16T06:06:16.319Z,7.22
2022-10-16T06:11:13.164Z,5.95
2022-10-16T06:16:07.988Z,11.73
2022-10-16T06:21:01.306Z,8.05
2022-10-16T06:25:55.922Z,8.70
2022-10-16T06:30:49.169Z,14.50
2022-10-16T06:35:42.807Z,8.25
2022-10-16T06:40:36.099Z,8.68
2022-10-16T06:45:30.723Z,11.35
2022-10-16T06:50:24.647Z,9.65
2022-10-16T06:55:18.039Z,11.35
2022-10-16T07:00:12.457Z,9.73
2022-10-16T07:05:07.877Z,6.05
2022-10-16T07:10:01.112Z,8.18
2022-10-16T07:14:55.712Z,10.20
2022-10-16T07:19:49.042Z,7.18
2022-10-16T07:24:46.250Z,6.90
2022-10-16T07:29:41.639Z,6.60
2022-10-16T07:34:34.924Z,9.85
2022-10-16T07:39:28.157Z,5.65
2022-10-16T07:44:22.997Z,6.40
2022-10-16T07:49:16.432Z,8.70
2022-10-16T07:54:11.170Z,7.93
2022-10-16T07:59:04.405Z,8.10
2022-10-16T08:03:59.136Z,6.15
2022-10-16T08:08:52.526Z,6.90
2022-10-16T08:13:46.048Z,8.00
2022-10-16T08:18:41.281Z,6.18
2022-10-16T08:23:36.757Z,6.15
2022-10-16T08:28:30.110Z,7.22
2022-10-16T08:33:23.370Z,8.20
2022-10-16T08:38:16.601Z,9.45
2022-10-16T08:43:38.430Z,7.60
2022-10-16T08:48:44.823Z,9.52
2022-10-16T08:53:46.803Z,8.18
2022-10-16T08:58:41.654Z,5.78
2022-10-16T09:04:09.753Z,6.70
2022-10-16T09:09:28.861Z,7.25
2022-10-16T09:14:49.489Z,9.25
2022-10-16T09:19:52.271Z,6.88
2022-10-16T09:24:45.713Z,7.28
2022-10-16T09:29:40.437Z,7.75
2022-10-16T09:34:38.104Z,6.93
2022-10-16T09:39:31.458Z,8.40
2022-10-16T09:44:29.850Z,10.80
2022-10-16T09:49:26.861Z,7.78
2022-10-16T09:54:23.255Z,8.50
2022-10-16T09:59:19.473Z,8.38
2022-10-16T10:04:13.635Z,6.18
2022-10-16T10:09:20.788Z,7.10
2022-10-16T10:14:23.613Z,5.35
2022-10-16T10:19:19.767Z,5.13
2022-10-16T10:24:16.913Z,6.30
2022-10-16T10:29:22.428Z,5.53
2022-10-16T10:34:35.613Z,5.65
2022-10-16T10:39:38.369Z,4.88
2022-10-16T10:45:13.456Z,5.35
2022-10-16T10:50:21.583Z,4.00
2022-10-16T10:55:27.089Z,4.70
2022-10-16T11:00:28.777Z,4.25
2022-10-16T11:05:42.708Z,3.97
2022-10-16T11:10:50.738Z,2.85
2022-10-16T11:15:47.292Z,3.28
2022-10-16T11:20:47.983Z,1.77
2022-10-16T11:25:45.403Z,3.17
2022-10-16T11:30:48.554Z,2.85
2022-10-16T11:35:50.085Z,4.40
2022-10-16T11:40:52.024Z,2.58
2022-10-16T11:45:50.728Z,4.45
2022-10-16T11:50:52.174Z,1.90
2022-10-16T11:55:48.103Z,2.50
2022-10-16T12:00:49.801Z,1.42
2022-10-16T12:06:04.420Z,1.08
2022-10-16T12:11:11.225Z,0.90
2022-10-16T12:16:25.190Z,1.60
2022-10-16T12:21:20.979Z,1.45
2022-10-16T12:26:15.898Z,1.40
2022-10-16T12:31:13.368Z,1.40
2022-10-16T12:36:16.509Z,1.40
2022-10-16T12:41:11.873Z,1.73
2022-10-16T12:46:24.969Z,1.77
2022-10-16T12:51:28.027Z,2.00
2022-10-16T12:56:30.741Z,2.72
2022-10-16T13:01:43.344Z,1.50
2022-10-16T13:06:47.127Z,1.77
2022-10-16T13:12:18.109Z,2.17
2022-10-16T13:17:27.496Z,1.50
2022-10-16T13:22:31.522Z,2.05
2022-10-16T13:27:38.946Z,1.92
2022-10-16T13:32:33.651Z,1.50
2022-10-16T13:37:28.999Z,1.67
2022-10-16T13:42:28.608Z,1.38
2022-10-16T13:47:25.715Z,1.45
2022-10-16T13:52:23.358Z,2.65
2022-10-16T13:57:33.337Z,3.95
2022-10-16T14:02:36.193Z,2.72
2022-10-16T14:07:34.052Z,5.55
2022-10-16T14:17:37.064Z,2.03
2022-10-16T14:22:37.284Z,2.58
2022-10-16T14:27:36.948Z,1.88
2022-10-16T14:32:31.066Z,1.80
2022-10-16T14:37:29.141Z,2.13
2022-10-16T14:42:27.029Z,2.20
2022-10-16T14:47:26.408Z,2.10
2022-10-16T14:52:20.214Z,1.88
2022-10-16T14:57:21.583Z,2.10
2022-10-16T15:02:25.161Z,1.98
2022-10-16T15:07:18.669Z,1.88
2022-10-16T15:12:12.025Z,2.83
2022-10-16T15:17:05.410Z,4.55
2022-10-16T15:22:00.043Z,2.58
2022-10-16T15:26:53.348Z,2.35
2022-10-16T15:31:48.513Z,1.83
2022-10-16T15:36:42.468Z,1.80
2022-10-16T15:41:37.158Z,3.05
2022-10-16T15:46:31.982Z,4.32
2022-10-16T15:51:25.423Z,3.45
2022-10-16T15:56:19.560Z,2.45
2022-10-16T16:01:14.458Z,2.05
2022-10-16T16:06:10.215Z,2.53
2022-10-16T16:11:06.912Z,2.03
2022-10-16T16:16:00.506Z,1.90
2022-10-16T16:20:55.736Z,2.00
2022-10-16T16:26:10.812Z,3.88
2022-10-16T16:31:04.138Z,1.80
2022-10-16T16:36:03.734Z,2.55
2022-10-16T16:40:57.757Z,1.63
2022-10-16T16:45:51.029Z,2.20
2022-10-16T16:50:44.255Z,2.97
2022-10-16T16:55:38.896Z,1.95
2022-10-16T17:00:32.828Z,2.28
2022-10-16T17:05:26.965Z,1.98
2022-10-16T17:10:20.428Z,3.40
2022-10-16T17:15:15.054Z,1.90
2022-10-16T17:20:11.299Z,3.35
2022-10-16T17:25:05.057Z,2.22
2022-10-16T17:29:58.278Z,3.38
2022-10-16T17:34:52.862Z,2.80
2022-10-16T17:39:46.400Z,2.70
2022-10-16T17:44:39.802Z,6.85
2022-10-16T17:49:33.099Z,9.35
2022-10-16T17:54:27.834Z,8.35
2022-10-16T17:59:23.051Z,7.63
2022-10-16T18:04:18.841Z,6.63
2022-10-16T18:09:15.546Z,4.93
2022-10-16T18:14:13.819Z,4.57
2022-10-16T18:19:07.388Z,4.28
2022-10-16T18:24:01.457Z,3.40
2022-10-16T18:28:56.605Z,1.95
2022-10-16T18:33:51.678Z,5.40
2022-10-16T18:38:46.648Z,3.15
2022-10-16T18:43:40.893Z,1.80
2022-10-16T18:48:34.898Z,2.38
2022-10-16T18:58:27.781Z,2.13
2022-10-16T19:03:21.062Z,2.45
2022-10-16T19:08:15.998Z,4.15
2022-10-16T19:13:11.154Z,4.22
2022-10-16T19:18:04.586Z,4.00
2022-10-16T19:22:59.010Z,2.80
2022-10-16T19:27:53.234Z,2.60
2022-10-16T19:32:49.534Z,3.03
2022-10-16T19:37:44.240Z,3.50
2022-10-16T19:42:43.200Z,3.78
2022-10-16T19:47:36.706Z,1.98
2022-10-16T19:52:31.356Z,7.45
2022-10-16T19:57:24.817Z,8.15
2022-10-16T20:02:18.180Z,7.28
2022-10-16T20:07:11.526Z,11.48
2022-10-16T20:12:06.953Z,8.27
2022-10-16T20:17:00.241Z,9.50
2022-10-16T20:21:53.545Z,7.22
2022-10-16T20:26:47.259Z,9.18
2022-10-16T20:31:42.749Z,7.65
2022-10-16T20:36:37.740Z,3.83
2022-10-16T20:41:31.145Z,7.78
2022-10-16T20:46:27.152Z,3.97
2022-10-16T20:51:25.022Z,2.53
2022-10-16T20:56:19.002Z,7.05
2022-10-16T21:01:16.756Z,4.68
2022-10-16T21:06:12.107Z,5.85
2022-10-16T21:16:35.573Z,3.13
2022-10-16T21:21:31.791Z,3.05
2022-10-16T21:26:27.077Z,2.92
2022-10-16T21:31:22.363Z,6.18
2022-10-16T21:36:19.654Z,3.13
2022-10-16T21:41:19.402Z,2.72
2022-10-16T21:46:13.159Z,3.22
2022-10-16T21:51:07.017Z,3.10
2022-10-16T21:56:01.715Z,5.00
2022-10-16T22:00:55.032Z,4.60
2022-10-16T22:11:06.368Z,2.58
2022-10-16T22:15:59.714Z,3.20
2022-10-16T22:20:52.968Z,1.95
2022-10-16T22:25:46.261Z,4.05
2022-10-16T22:30:42.358Z,3.38
2022-10-16T22:35:38.682Z,3.10
2022-10-16T22:40:34.578Z,2.20
2022-10-16T22:45:27.840Z,2.80
2022-10-16T22:50:23.414Z,1.90
2022-10-16T23:00:27.285Z,2.90
2022-10-16T23:05:21.882Z,1.60
2022-10-16T23:10:15.134Z,3.42
2022-10-16T23:15:09.536Z,2.45
2022-10-16T23:20:02.782Z,3.08
2022-10-16T23:24:57.372Z,3.63
2022-10-16T23:29:50.999Z,2.95
2022-10-16T23:34:44.285Z,1.70
2022-10-16T23:39:40.347Z,1.92
2022-10-16T23:44:35.198Z,5.90
2022-10-16T23:49:28.427Z,5.25
2022-10-16T23:54:21.799Z,5.40
2022-10-16T23:59:15.054Z,3.33
